Time;durP1;ratioP1;P1;durP2;ratioP2;P2;SDS_P1;SDS_P2;PMS_P1;PMS_P2;Temp;Humidity;BMP_temperature;BMP_pressure;BME280_temperature;BME280_humidity;BME280_pressure;Samples;Min_cycle;Max_cycle;Signal;HPM_P1;HPM_P2
2023/12/29 00:00:21;;;;;;;48.90;29.27;;;;;;;1.60;100.00;100848.74;1442550;89;21890;-83
2023/12/29 00:02:48;;;;;;;42.90;26.17;;;;;;;1.58;100.00;100846.20;1460115;89;21796;-83
2023/12/29 00:05:16;;;;;;;44.67;26.07;;;;;;;1.62;100.00;100845.14;1454817;89;22149;-82
2023/12/29 00:07:43;;;;;;;52.50;28.20;;;;;;;1.71;100.00;100842.04;1440851;89;21674;-82
2023/12/29 00:10:10;;;;;;;47.23;27.83;;;;;;;1.92;100.00;100836.59;1455196;89;22833;-82
2023/12/29 00:12:38;;;;;;;46.13;28.37;;;;;;;1.92;100.00;100836.59;1456394;89;21771;-82
2023/12/29 00:15:06;;;;;;;53.77;33.80;;;;;;;2.03;100.00;100838.17;1440737;89;21749;-83
2023/12/29 00:17:37;;;;;;;58.37;34.20;;;;;;;2.17;100.00;100831.73;1456460;89;21896;-83
2023/12/29 00:20:04;;;;;;;50.30;29.87;;;;;;;2.17;100.00;100831.73;1455468;89;22025;-82
2023/12/29 00:22:32;;;;;;;42.17;26.37;;;;;;;2.28;100.00;100826.41;1455651;89;21747;-82
2023/12/29 00:25:00;;;;;;;41.77;25.33;;;;;;;2.36;100.00;100828.09;1451963;89;22667;-82
2023/12/29 00:27:27;;;;;;;48.83;25.50;;;;;;;2.42;100.00;100824.70;1454438;89;21884;-82
2023/12/29 00:30:05;;;;;;;42.20;26.50;;;;;;;2.50;100.00;100819.03;1457973;89;21924;-82
2023/12/29 00:32:32;;;;;;;41.60;24.47;;;;;;;2.57;100.00;100819.08;1445360;89;21862;-82
2023/12/29 00:35:00;;;;;;;41.07;26.23;;;;;;;2.63;100.00;100821.34;1461152;89;21877;-82
2023/12/29 00:37:27;;;;;;;44.93;26.60;;;;;;;2.69;100.00;100820.15;1457751;89;22921;-83
2023/12/29 00:39:55;;;;;;;40.47;26.27;;;;;;;2.74;100.00;100815.51;1457358;89;22291;-83
2023/12/29 00:42:22;;;;;;;46.53;30.70;;;;;;;2.80;100.00;100815.63;1453491;89;22210;-83
2023/12/29 00:44:51;;;;;;;48.77;27.50;;;;;;;2.86;100.00;100827.03;1458593;89;22746;-83
2023/12/29 00:47:19;;;;;;;39.60;26.07;;;;;;;2.87;100.00;100817.77;1457478;89;22097;-83
2023/12/29 00:49:46;;;;;;;39.97;25.33;;;;;;;2.95;100.00;100830.41;1458795;89;22907;-83
2023/12/29 00:52:14;;;;;;;41.57;24.43;;;;;;;2.97;100.00;100827.72;1454009;89;22077;-82
2023/12/29 00:54:41;;;;;;;37.57;22.50;;;;;;;2.96;100.00;100830.78;1459043;89;22276;-84
2023/12/29 00:57:09;;;;;;;34.00;21.20;;;;;;;2.94;100.00;100834.80;1457312;89;22109;-84
2023/12/29 00:59:43;;;;;;;36.10;22.57;;;;;;;2.91;100.00;100843.30;1451631;89;23665;-81
2023/12/29 01:02:07;;;;;;;37.23;23.18;;;;;;;2.87;100.00;100847.84;1455041;89;22145;-82
2023/12/29 01:04:39;;;;;;;36.70;23.83;;;;;;;2.83;100.00;100834.58;1457334;89;21540;-80
2023/12/29 01:07:06;;;;;;;33.07;21.77;;;;;;;2.83;100.00;100841.11;1447711;89;22147;-81
2023/12/29 01:09:40;;;;;;;33.70;21.70;;;;;;;2.80;100.00;100841.30;1439993;89;23047;-80
2023/12/29 01:12:07;;;;;;;30.70;21.10;;;;;;;2.79;100.00;100841.36;1451419;89;23323;-81
2023/12/29 01:14:35;;;;;;;35.10;22.53;;;;;;;2.79;100.00;100840.05;1452521;89;22631;-80
2023/12/29 01:17:02;;;;;;;34.40;21.10;;;;;;;2.78;100.00;100835.77;1457755;89;22153;-80
2023/12/29 01:19:29;;;;;;;38.63;21.63;;;;;;;2.76;100.00;100841.54;1456762;89;22263;-81
2023/12/29 01:21:57;;;;;;;39.40;21.50;;;;;;;2.79;100.00;100846.59;1455995;89;22051;-82
2023/12/29 01:24:24;;;;;;;38.90;22.93;;;;;;;2.79;100.00;100839.63;1452711;89;22745;-82
2023/12/29 01:26:52;;;;;;;37.03;22.77;;;;;;;2.86;100.00;100840.09;1452667;89;23063;-81
2023/12/29 01:29:19;;;;;;;35.20;22.83;;;;;;;2.89;100.00;100838.14;1454559;89;22193;-82
2023/12/29 01:31:47;;;;;;;40.40;24.33;;;;;;;2.88;100.00;100838.25;1462490;89;22012;-82
2023/12/29 01:34:14;;;;;;;39.23;24.67;;;;;;;2.88;100.00;100836.94;1460025;89;22073;-82
2023/12/29 01:36:42;;;;;;;35.10;22.23;;;;;;;2.95;100.00;100831.72;1419791;89;22117;-82
2023/12/29 01:39:09;;;;;;;37.87;21.83;;;;;;;2.96;100.00;100825.55;1459398;89;22900;-81
2023/12/29 01:41:36;;;;;;;42.20;25.70;;;;;;;2.95;100.00;100812.11;1458153;89;22042;-84
2023/12/29 01:44:20;;;;;;;42.43;24.87;;;;;;;2.97;100.00;100805.02;1453174;89;22093;-81
2023/12/29 01:46:51;;;;;;;41.27;25.77;;;;;;;3.02;100.00;100803.43;1457442;89;23227;-79
2023/12/29 01:49:20;;;;;;;40.08;25.35;;;;;;;3.05;100.00;100796.27;1459162;89;22028;-80
2023/12/29 01:51:55;;;;;;;40.50;26.43;;;;;;;3.09;100.00;100792.53;1443425;89;21547;-80
2023/12/29 01:54:26;;;;;;;41.43;25.17;;;;;;;3.13;100.00;100797.94;1451137;89;22115;-80
2023/12/29 01:56:57;;;;;;;49.20;28.15;;;;;;;3.18;100.00;100790.30;1460765;89;22195;-81
2023/12/29 01:59:25;;;;;;;;;;;;;;;3.19;100.00;100776.28;1459690;89;21437;-81
2023/12/29 02:01:56;;;;;;;56.33;29.97;;;;;;;3.21;100.00;100773.13;1441793;89;20944;-80
2023/12/29 02:04:25;;;;;;;;;;;;;;;3.23;100.00;100775.19;1455912;89;22254;-81
2023/12/29 02:06:53;;;;;;;46.07;27.77;;;;;;;3.23;100.00;100772.56;1439285;89;20405;-80
2023/12/29 02:09:21;;;;;;;48.07;27.07;;;;;;;3.25;100.00;100761.52;1452458;89;22127;-81
2023/12/29 02:11:48;;;;;;;47.77;28.47;;;;;;;3.28;100.00;100754.80;1457707;89;22127;-80
2023/12/29 02:14:18;;;;;;;39.13;25.87;;;;;;;3.31;100.00;100750.25;1450745;89;22172;-81
2023/12/29 02:17:02;;;;;;;40.00;26.93;;;;;;;3.35;100.00;100748.27;1456548;89;22041;-80
2023/12/29 02:19:45;;;;;;;43.93;27.63;;;;;;;3.38;100.00;100752.02;1459394;89;22129;-79
2023/12/29 02:22:12;;;;;;;49.20;28.03;;;;;;;3.40;100.00;100752.77;1452766;89;22082;-80
2023/12/29 02:24:40;;;;;;;41.93;25.67;;;;;;;3.42;100.00;100744.34;1460680;89;23772;-79
2023/12/29 02:27:33;;;;;;;45.83;28.10;;;;;;;3.44;100.00;100741.64;1454936;88;22132;-79
2023/12/29 02:30:11;;;;;;;41.50;26.43;;;;;;;3.43;100.00;100734.26;1439871;89;23141;-80
2023/12/29 02:32:47;;;;;;;41.07;27.47;;;;;;;3.43;100.00;100735.57;1457391;89;22468;-80
2023/12/29 02:35:23;;;;;;;38.80;26.40;;;;;;;3.44;100.00;100736.41;1452629;89;23165;-82
2023/12/29 02:37:51;;;;;;;45.87;25.23;;;;;;;3.45;100.00;100734.16;1451241;89;22115;-81
2023/12/29 02:40:18;;;;;;;46.90;27.97;;;;;;;3.47;100.00;100729.20;1455483;89;22080;-81
2023/12/29 02:42:47;;;;;;;51.83;30.43;;;;;;;3.46;100.00;100730.14;1463466;89;22303;-81
2023/12/29 02:45:16;;;;;;;42.67;27.27;;;;;;;3.46;100.00;100734.55;1462322;89;23198;-80
2023/12/29 02:47:44;;;;;;;39.67;27.00;;;;;;;3.43;100.00;100732.95;1447727;89;22118;-80
2023/12/29 02:50:12;;;;;;;44.23;27.13;;;;;;;3.41;100.00;100740.05;1456239;89;22101;-80
2023/12/29 02:52:39;;;;;;;42.67;28.73;;;;;;;3.39;100.00;100738.84;1456966;89;23194;-81
2023/12/29 02:55:07;;;;;;;46.43;29.67;;;;;;;3.38;100.00;100744.16;1449421;89;22061;-81
2023/12/29 02:57:35;;;;;;;48.20;29.37;;;;;;;3.36;100.00;100741.63;1458605;89;22054;-80
2023/12/29 03:00:03;;;;;;;43.67;27.50;;;;;;;3.37;100.00;100749.87;1452656;89;22071;-80
2023/12/29 03:02:31;;;;;;;40.60;27.90;;;;;;;3.42;100.00;100745.64;1455208;89;22977;-80
2023/12/29 03:04:58;;;;;;;40.47;24.10;;;;;;;3.41;100.00;100755.75;1453086;89;22057;-80
2023/12/29 03:07:26;;;;;;;41.37;24.63;;;;;;;3.32;100.00;100764.16;1452884;89;22251;-80
2023/12/29 03:09:53;;;;;;;40.40;24.93;;;;;;;3.21;100.00;100764.80;1449890;89;22110;-80
2023/12/29 03:12:20;;;;;;;41.07;27.87;;;;;;;3.13;100.00;100765.25;1453097;89;23092;-80
2023/12/29 03:14:47;;;;;;;39.67;25.53;;;;;;;3.09;100.00;100770.30;1452275;89;22152;-81
2023/12/29 03:17:14;;;;;;;37.23;25.53;;;;;;;3.11;100.00;100784.13;1457754;89;22079;-81
2023/12/29 03:19:42;;;;;;;36.97;25.67;;;;;;;3.12;100.00;100771.42;1456653;89;22219;-80
2023/12/29 03:22:09;;;;;;;42.33;27.20;;;;;;;3.16;100.00;100772.07;1451165;89;22064;-79
2023/12/29 03:24:37;;;;;;;40.30;26.37;;;;;;;3.21;100.00;100775.73;1443396;89;22123;-80
2023/12/29 03:27:05;;;;;;;43.03;26.50;;;;;;;3.26;100.00;100772.38;1452823;89;22062;-82
2023/12/29 03:29:32;;;;;;;50.50;28.73;;;;;;;3.28;100.00;100771.80;1444254;89;22145;-81
2023/12/29 03:31:59;;;;;;;40.83;25.17;;;;;;;3.31;100.00;100776.41;1450730;89;23066;-80
2023/12/29 03:34:27;;;;;;;45.13;26.60;;;;;;;3.35;100.00;100771.82;1454476;89;22231;-81
2023/12/29 03:36:54;;;;;;;58.17;28.77;;;;;;;3.39;100.00;100772.00;1446220;89;22946;-81
2023/12/29 03:39:21;;;;;;;46.37;27.23;;;;;;;3.42;100.00;100773.12;1461776;89;22085;-81
2023/12/29 03:41:48;;;;;;;43.60;25.97;;;;;;;3.40;100.00;100771.08;1445586;89;23157;-82
2023/12/29 03:44:17;;;;;;;34.67;22.87;;;;;;;3.38;100.00;100766.40;1452158;89;22110;-80
2023/12/29 03:46:44;;;;;;;35.03;22.90;;;;;;;3.33;100.00;100767.14;1452852;89;23188;-81
2023/12/29 03:49:12;;;;;;;38.87;24.20;;;;;;;3.33;100.00;100767.14;1448758;89;21325;-82
2023/12/29 03:51:39;;;;;;;38.60;24.97;;;;;;;3.33;100.00;100767.98;1458394;89;22080;-81
2023/12/29 03:54:07;;;;;;;37.07;24.30;;;;;;;3.34;100.00;100757.07;1452190;89;22109;-81
2023/12/29 03:56:34;;;;;;;41.17;26.47;;;;;;;3.38;100.00;100752.02;1459461;89;22930;-81
2023/12/29 03:59:01;;;;;;;37.80;26.93;;;;;;;3.43;100.00;100742.11;1456225;89;22057;-80
2023/12/29 04:01:28;;;;;;;38.33;25.87;;;;;;;3.48;100.00;100750.53;1459103;89;22011;-81
2023/12/29 04:03:56;;;;;;;34.33;25.67;;;;;;;3.51;100.00;100744.23;1451843;89;22305;-81
2023/12/29 04:06:23;;;;;;;38.60;25.10;;;;;;;3.51;100.00;100744.23;1455723;89;21507;-81
2023/12/29 04:08:50;;;;;;;45.27;25.80;;;;;;;3.60;100.00;100741.91;1454438;89;21512;-80
2023/12/29 04:11:17;;;;;;;38.40;25.30;;;;;;;3.62;100.00;100731.33;1454546;89;21503;-81
2023/12/29 04:13:45;;;;;;;39.23;25.27;;;;;;;3.72;100.00;100743.39;1454840;89;21312;-81
2023/12/29 04:16:12;;;;;;;36.83;26.50;;;;;;;3.80;100.00;100752.92;1457971;89;21370;-80
2023/12/29 04:18:39;;;;;;;41.57;25.80;;;;;;;3.84;100.00;100745.23;1457015;89;21558;-81
2023/12/29 04:21:08;;;;;;;39.07;24.73;;;;;;;3.89;100.00;100733.17;1454635;89;21377;-80
2023/12/29 04:23:35;;;;;;;36.87;24.03;;;;;;;3.89;100.00;100733.17;1464203;89;21458;-81
2023/12/29 04:26:03;;;;;;;42.13;27.30;;;;;;;3.98;100.00;100742.59;1442965;89;21385;-82
2023/12/29 04:28:30;;;;;;;36.90;24.03;;;;;;;3.99;100.00;100739.02;1453726;89;21348;-82
2023/12/29 04:30:57;;;;;;;40.87;24.90;;;;;;;4.04;100.00;100742.19;1456123;89;21504;-82
2023/12/29 04:33:25;;;;;;;38.73;24.90;;;;;;;4.01;100.00;100729.29;1452644;89;22397;-81
2023/12/29 04:35:52;;;;;;;38.63;24.37;;;;;;;4.04;100.00;100731.71;1458551;89;21492;-81
2023/12/29 04:38:19;;;;;;;41.20;25.73;;;;;;;4.03;100.00;100724.80;1439915;89;22251;-81
2023/12/29 04:40:47;;;;;;;41.47;25.00;;;;;;;4.03;100.00;100723.97;1454946;89;21340;-81
2023/12/29 04:43:14;;;;;;;45.33;27.87;;;;;;;4.01;100.00;100721.44;1455449;89;21363;-81
2023/12/29 04:45:41;;;;;;;42.10;26.30;;;;;;;3.99;100.00;100717.23;1457634;89;21510;-82
2023/12/29 04:48:09;;;;;;;44.80;27.10;;;;;;;4.01;100.00;100712.27;1456511;89;21488;-81
2023/12/29 04:50:36;;;;;;;47.47;25.33;;;;;;;3.99;100.00;100717.23;1456404;89;21592;-81
2023/12/29 04:53:04;;;;;;;46.60;25.40;;;;;;;3.91;100.00;100705.09;1457585;89;21356;-81
2023/12/29 04:55:31;;;;;;;45.00;25.53;;;;;;;3.97;100.00;100713.86;1454582;89;21577;-81
2023/12/29 04:57:58;;;;;;;56.30;27.83;;;;;;;3.97;100.00;100726.52;1445683;89;21370;-82
2023/12/29 05:00:25;;;;;;;49.77;28.00;;;;;;;3.97;100.00;100739.61;1453109;89;21510;-81
2023/12/29 05:02:53;;;;;;;42.77;25.93;;;;;;;3.98;100.00;100734.73;1456988;89;21480;-81
2023/12/29 05:05:20;;;;;;;61.20;30.60;;;;;;;3.99;100.00;100742.95;1445262;89;21384;-81
2023/12/29 05:07:47;;;;;;;51.00;29.90;;;;;;;3.97;100.00;100751.39;1443407;89;21532;-81
2023/12/29 05:10:15;;;;;;;59.73;30.13;;;;;;;3.93;100.00;100749.89;1439117;89;21289;-81
2023/12/29 05:12:42;;;;;;;58.47;29.87;;;;;;;3.89;100.00;100748.89;1459634;89;21378;-82
2023/12/29 05:15:09;;;;;;;64.47;32.93;;;;;;;3.87;100.00;100750.75;1439592;89;21392;-81
2023/12/29 05:17:39;;;;;;;69.43;34.03;;;;;;;3.83;100.00;100751.42;1444216;89;21415;-80
2023/12/29 05:20:08;;;;;;;62.50;34.70;;;;;;;3.80;100.00;100752.45;1465145;89;22362;-81
2023/12/29 05:22:36;;;;;;;59.77;32.37;;;;;;;3.82;100.00;100752.34;1465198;89;21267;-80
2023/12/29 05:25:04;;;;;;;61.87;33.50;;;;;;;3.78;100.00;100759.55;1444988;89;21545;-80
2023/12/29 05:27:31;;;;;;;61.33;33.40;;;;;;;3.79;100.00;100768.23;1466553;89;21628;-79
2023/12/29 05:29:58;;;;;;;62.57;35.40;;;;;;;3.79;100.00;100763.00;1450611;89;21356;-81
2023/12/29 05:32:25;;;;;;;82.27;36.93;;;;;;;3.76;100.00;100767.12;1461329;89;21311;-80
2023/12/29 05:34:53;;;;;;;63.37;33.07;;;;;;;3.77;100.00;100770.97;1452738;89;21406;-79
2023/12/29 05:37:21;;;;;;;64.77;35.63;;;;;;;3.79;100.00;100767.77;1460041;89;21377;-80
2023/12/29 05:39:48;;;;;;;76.77;39.07;;;;;;;3.75;100.00;100766.77;1453845;89;21421;-81
2023/12/29 05:42:16;;;;;;;66.57;36.20;;;;;;;3.78;100.00;100778.35;1463297;89;21407;-80
2023/12/29 05:44:43;;;;;;;72.20;39.60;;;;;;;3.74;100.00;100771.61;1460149;89;21480;-81
2023/12/29 05:47:12;;;;;;;68.80;39.70;;;;;;;3.76;100.00;100786.76;1445487;89;21377;-81
2023/12/29 05:49:39;;;;;;;81.30;39.47;;;;;;;3.75;100.00;100791.16;1452485;89;21371;-81
2023/12/29 05:52:07;;;;;;;72.03;37.63;;;;;;;3.76;100.00;100788.07;1455330;89;21525;-81
2023/12/29 05:54:34;;;;;;;71.37;37.87;;;;;;;3.75;100.00;100783.78;1457327;89;21678;-81
2023/12/29 05:57:02;;;;;;;77.60;39.43;;;;;;;3.74;100.00;100782.08;1451127;89;21362;-80
2023/12/29 05:59:30;;;;;;;70.77;38.60;;;;;;;3.74;100.00;100781.63;1458824;89;21274;-80
2023/12/29 06:01:57;;;;;;;70.87;39.00;;;;;;;3.76;100.00;100773.67;1453601;89;21470;-80
2023/12/29 06:04:24;;;;;;;68.70;38.57;;;;;;;3.77;100.00;100781.88;1453835;89;22360;-81
2023/12/29 06:06:52;;;;;;;75.63;41.53;;;;;;;3.77;100.00;100777.52;1450981;89;21622;-79
2023/12/29 06:09:19;;;;;;;74.97;37.70;;;;;;;3.76;100.00;100772.36;1457989;89;21326;-79
2023/12/29 06:11:47;;;;;;;73.67;38.97;;;;;;;3.77;100.00;100772.28;1457375;89;22582;-81
2023/12/29 06:14:14;;;;;;;82.93;41.90;;;;;;;3.76;100.00;100772.36;1457476;89;21400;-81
2023/12/29 06:16:42;;;;;;;75.23;41.20;;;;;;;3.74;100.00;100771.61;1458412;89;21510;-79
2023/12/29 06:19:09;;;;;;;75.57;43.07;;;;;;;3.75;100.00;100762.84;1460183;89;21415;-81
2023/12/29 06:21:43;;;;;;;100.47;51.07;;;;;;;3.77;100.00;100759.19;1453902;89;21518;-82
2023/12/29 06:24:11;;;;;;;82.00;46.47;;;;;;;3.76;100.00;100759.27;1462005;89;21540;-82
2023/12/29 06:26:42;;;;;;;77.47;44.67;;;;;;;3.72;100.00;100748.63;1461201;89;22250;-79
2023/12/29 06:29:08;;;;;;;81.50;49.00;;;;;;;3.72;100.00;100748.63;1456717;89;21599;-80
2023/12/29 06:31:35;;;;;;;78.43;45.13;;;;;;;3.69;100.00;100746.20;1449708;89;21400;-80
2023/12/29 06:34:03;;;;;;;74.17;41.43;;;;;;;3.65;100.00;100748.63;1458030;89;21503;-79
2023/12/29 06:36:31;;;;;;;73.90;43.10;;;;;;;3.63;100.00;100741.36;1461180;89;22346;-80
2023/12/29 06:38:58;;;;;;;83.17;46.17;;;;;;;3.63;100.00;100737.43;1458209;89;21591;-78
2023/12/29 06:41:26;;;;;;;77.70;45.67;;;;;;;3.61;100.00;100740.97;1462292;89;22265;-78
2023/12/29 06:43:53;;;;;;;77.33;45.03;;;;;;;3.62;100.00;100733.95;1466573;89;21614;-78
2023/12/29 06:46:20;;;;;;;75.13;44.83;;;;;;;3.61;100.00;100721.80;1445960;89;21415;-81
2023/12/29 06:48:49;;;;;;;82.20;44.60;;;;;;;3.60;100.00;100730.13;1453748;89;21319;-83
2023/12/29 06:51:18;;;;;;;71.53;44.83;;;;;;;3.56;100.00;100741.71;1458479;89;21467;-81
2023/12/29 06:53:49;;;;;;;83.43;48.33;;;;;;;3.54;100.00;100745.35;1454853;89;21570;-82
2023/12/29 06:56:17;;;;;;;;;;;;;;;3.57;100.00;100753.88;1452225;89;21385;-81
2023/12/29 06:58:45;;;;;;;79.37;44.53;;;;;;;3.57;100.00;100768.27;1456396;89;20752;-81
2023/12/29 07:01:13;;;;;;;85.10;50.17;;;;;;;3.55;100.00;100772.75;1451752;89;21451;-81
2023/12/29 07:03:40;;;;;;;81.23;52.43;;;;;;;3.55;100.00;100772.75;1460999;89;21636;-82
2023/12/29 07:06:08;;;;;;;77.47;45.10;;;;;;;3.55;100.00;100757.60;1452709;89;21370;-81
2023/12/29 07:08:36;;;;;;;73.00;44.40;;;;;;;3.56;100.00;100757.41;1457053;89;22354;-81
2023/12/29 07:11:03;;;;;;;70.47;43.33;;;;;;;3.56;100.00;100757.41;1456498;89;21514;-81
2023/12/29 07:13:31;;;;;;;68.90;43.80;;;;;;;3.57;100.00;100756.50;1455137;89;21545;-81
2023/12/29 07:15:58;;;;;;;69.90;45.20;;;;;;;3.54;100.00;100751.45;1459295;89;21274;-79
2023/12/29 07:18:26;;;;;;;69.53;44.50;;;;;;;3.58;100.00;100749.01;1451703;89;22339;-81
2023/12/29 07:20:53;;;;;;;68.87;42.53;;;;;;;3.65;100.00;100752.55;1456651;89;21533;-81
2023/12/29 07:23:21;;;;;;;67.33;44.47;;;;;;;3.68;100.00;100750.58;1460154;89;22212;-84
2023/12/29 07:25:49;;;;;;;67.40;43.20;;;;;;;3.67;100.00;100754.61;1462396;89;22301;-83
2023/12/29 07:28:16;;;;;;;71.07;44.13;;;;;;;3.61;100.00;100747.51;1458924;89;21548;-82
2023/12/29 07:30:44;;;;;;;66.30;42.27;;;;;;;3.66;100.00;100765.55;1454835;89;21377;-82
2023/12/29 07:33:11;;;;;;;75.30;43.60;;;;;;;3.69;100.00;100781.07;1454944;89;22433;-82
2023/12/29 07:35:38;;;;;;;80.13;45.70;;;;;;;3.77;100.00;100787.13;1447383;89;21448;-83
2023/12/29 07:38:06;;;;;;;70.80;43.80;;;;;;;3.77;100.00;100787.13;1454303;89;21526;-83
2023/12/29 07:40:33;;;;;;;78.23;46.97;;;;;;;3.77;100.00;100787.98;1454504;89;21504;-83
2023/12/29 07:43:01;;;;;;;79.50;46.57;;;;;;;3.74;100.00;100792.55;1454540;89;21429;-82
2023/12/29 07:45:31;;;;;;;78.57;48.17;;;;;;;3.74;100.00;100797.78;1458339;89;21578;-82
2023/12/29 07:47:59;;;;;;;63.25;40.48;;;;;;;3.68;100.00;100798.17;1459714;89;21499;-83
2023/12/29 07:50:26;;;;;;;79.30;46.90;;;;;;;3.63;100.00;100797.63;1448439;89;22345;-83
2023/12/29 07:52:54;;;;;;;76.63;47.50;;;;;;;3.60;100.00;100797.34;1456946;89;21533;-83
2023/12/29 07:55:21;;;;;;;75.67;47.00;;;;;;;3.54;100.00;100788.09;1458284;89;21481;-83
2023/12/29 07:57:49;;;;;;;80.07;48.40;;;;;;;3.61;100.00;100794.62;1455002;89;21334;-83
2023/12/29 08:00:17;;;;;;;81.47;50.50;;;;;;;3.58;100.00;100798.73;1446394;89;21356;-82
2023/12/29 08:02:45;;;;;;;90.07;53.90;;;;;;;3.58;100.00;100798.73;1435177;89;22501;-83
2023/12/29 08:05:12;;;;;;;80.67;46.03;;;;;;;3.67;100.00;100797.80;1460973;89;21565;-83
2023/12/29 08:07:39;;;;;;;84.50;48.47;;;;;;;3.67;100.00;100797.80;1455774;89;21562;-82
2023/12/29 08:10:08;;;;;;;79.03;48.37;;;;;;;3.71;100.00;100801.91;1457119;89;21318;-82
2023/12/29 08:12:36;;;;;;;81.37;49.73;;;;;;;3.76;100.00;100822.10;1454609;89;21540;-82
2023/12/29 08:15:04;;;;;;;76.70;50.60;;;;;;;3.76;100.00;100822.10;1426929;89;21992;-82
2023/12/29 08:17:31;;;;;;;84.93;50.20;;;;;;;3.81;100.00;100820.05;1456417;89;21400;-82
2023/12/29 08:19:59;;;;;;;76.00;50.87;;;;;;;3.83;100.00;100822.11;1454270;89;21517;-82
2023/12/29 08:22:32;;;;;;;78.87;48.90;;;;;;;3.89;100.00;100813.04;1452906;89;21363;-83
2023/12/29 08:24:59;;;;;;;78.30;47.23;;;;;;;3.90;100.00;100811.62;1458020;89;21406;-82
2023/12/29 08:27:27;;;;;;;77.47;46.70;;;;;;;3.97;100.00;100818.62;1456335;89;21676;-82
2023/12/29 08:29:54;;;;;;;72.30;44.90;;;;;;;4.04;100.00;100822.08;1453027;89;21475;-82
2023/12/29 08:32:22;;;;;;;80.00;48.70;;;;;;;4.15;100.00;100820.10;1457129;89;21482;-82
2023/12/29 08:34:49;;;;;;;76.40;47.57;;;;;;;4.27;100.00;100815.86;1453905;89;21371;-82
2023/12/29 08:37:19;;;;;;;72.57;43.30;;;;;;;4.34;100.00;100821.55;1439984;89;21507;-82
2023/12/29 08:39:48;;;;;;;73.23;46.23;;;;;;;4.37;100.00;100814.31;1456385;89;22508;-82
2023/12/29 08:42:16;;;;;;;69.73;44.30;;;;;;;4.43;100.00;100810.02;1453205;89;22300;-82
2023/12/29 08:44:43;;;;;;;68.80;43.80;;;;;;;4.44;100.00;100814.31;1448238;89;21529;-82
2023/12/29 08:47:11;;;;;;;71.67;43.63;;;;;;;4.45;100.00;100805.97;1451375;89;22310;-82
2023/12/29 08:49:38;;;;;;;58.83;40.33;;;;;;;4.46;100.00;100807.64;1460911;89;21547;-83
2023/12/29 08:52:05;;;;;;;60.27;40.23;;;;;;;4.42;100.00;100813.56;1442307;89;21392;-82
2023/12/29 08:54:33;;;;;;;57.73;39.00;;;;;;;4.42;100.00;100807.01;1439469;89;21637;-82
2023/12/29 08:57:00;;;;;;;60.03;39.23;;;;;;;4.44;100.00;100805.14;1451754;89;21363;-82
2023/12/29 08:59:28;;;;;;;60.03;39.57;;;;;;;4.45;100.00;100802.87;1463623;89;21444;-82
2023/12/29 09:01:55;;;;;;;55.80;37.17;;;;;;;4.45;100.00;100805.50;1457010;89;21400;-83
2023/12/29 09:04:23;;;;;;;55.50;38.50;;;;;;;4.44;100.00;100794.66;1447152;89;22409;-82
2023/12/29 09:06:50;;;;;;;64.37;42.47;;;;;;;4.49;100.00;100786.03;1462531;89;21363;-82
2023/12/29 09:09:18;;;;;;;51.90;36.77;;;;;;;4.61;100.00;100795.34;1458712;89;21327;-83
2023/12/29 09:11:47;;;;;;;60.83;39.37;;;;;;;4.68;100.00;100802.69;1454163;89;22424;-82
2023/12/29 09:14:14;;;;;;;60.10;38.87;;;;;;;4.79;100.00;100804.61;1454289;89;21787;-82
2023/12/29 09:16:42;;;;;;;60.00;39.37;;;;;;;4.83;100.00;100803.45;1454446;89;21549;-81
2023/12/29 09:19:10;;;;;;;56.43;38.93;;;;;;;4.95;100.00;100801.36;1455466;89;21614;-82
2023/12/29 09:21:37;;;;;;;55.03;37.33;;;;;;;5.07;100.00;100805.42;1448387;89;21399;-82
2023/12/29 09:24:05;;;;;;;53.20;33.83;;;;;;;5.19;100.00;100806.73;1450158;89;22330;-82
2023/12/29 09:26:32;;;;;;;54.20;37.27;;;;;;;5.25;100.00;100802.84;1445059;89;21393;-82
2023/12/29 09:28:59;;;;;;;54.30;35.80;;;;;;;5.40;100.00;100810.98;1456864;89;22480;-82
2023/12/29 09:31:27;;;;;;;57.30;36.83;;;;;;;5.50;100.00;100802.50;1455814;89;21311;-82
2023/12/29 09:33:56;;;;;;;52.47;37.17;;;;;;;5.61;100.00;100805.20;1457182;89;21370;-82
2023/12/29 09:36:24;;;;;;;51.23;34.43;;;;;;;5.69;100.00;100810.76;1453237;89;22258;-83
2023/12/29 09:38:51;;;;;;;58.13;37.27;;;;;;;5.75;100.00;100806.39;1452269;89;21498;-82
2023/12/29 09:41:20;;;;;;;48.20;35.57;;;;;;;5.87;100.00;100796.35;1457924;89;21312;-82
2023/12/29 09:43:51;;;;;;;44.70;33.57;;;;;;;6.03;100.00;100799.23;1456291;89;21421;-82
2023/12/29 09:46:21;;;;;;;48.40;32.87;;;;;;;6.16;100.00;100795.23;1446819;89;21363;-82
2023/12/29 09:48:52;;;;;;;39.37;28.67;;;;;;;6.44;100.00;100789.66;1461739;89;22311;-82
2023/12/29 09:51:23;;;;;;;43.08;28.38;;;;;;;7.05;100.00;100780.79;1455256;89;21333;-82
2023/12/29 09:53:51;;;;;;;38.88;27.85;;;;;;;7.62;100.00;100774.63;1462443;89;21311;-83
2023/12/29 09:56:20;;;;;;;42.33;27.10;;;;;;;8.09;100.00;100774.83;1444506;89;21540;-82
2023/12/29 09:58:52;;;;;;;37.13;26.30;;;;;;;8.46;100.00;100769.70;1454857;89;21354;-82
2023/12/29 10:01:23;;;;;;;38.90;26.43;;;;;;;8.79;100.00;100768.74;1458436;89;21356;-83
2023/12/29 10:03:50;;;;;;;41.98;25.97;;;;;;;9.13;100.00;100758.83;1442502;89;21377;-82
2023/12/29 10:06:26;;;;;;;38.17;27.07;;;;;;;9.32;100.00;100763.39;1453951;89;22456;-82
2023/12/29 10:08:56;;;;;;;38.97;26.33;;;;;;;9.60;100.00;100756.55;1460853;89;21319;-82
2023/12/29 10:11:26;;;;;;;32.93;24.70;;;;;;;9.90;100.00;100755.69;1454873;89;21444;-81
2023/12/29 10:13:56;;;;;;;35.40;26.68;;;;;;;10.08;100.00;100761.14;1458257;89;22500;-83
2023/12/29 10:16:35;;;;;;;31.12;22.65;;;;;;;10.14;100.00;100757.12;1458876;89;21510;-82
2023/12/29 10:19:44;;;;;;;30.77;22.37;;;;;;;10.13;100.00;100736.95;1453840;89;21480;-80
2023/12/29 10:22:26;;;;;;;31.83;22.83;;;;;;;10.09;100.00;100743.47;1460176;89;21356;-83
2023/12/29 10:24:54;;;;;;;31.47;24.10;;;;;;;10.26;100.00;100726.91;1455251;89;21724;-83
2023/12/29 10:27:22;;;;;;;33.47;22.90;;;;;;;10.44;100.00;100720.97;1442137;89;22280;-81
2023/12/29 10:29:50;;;;;;;30.97;23.10;;;;;;;10.59;100.00;100724.87;1454863;89;21519;-82
2023/12/29 10:32:17;;;;;;;33.40;24.03;;;;;;;10.62;100.00;100710.04;1452130;89;21510;-82
2023/12/29 10:34:45;;;;;;;32.57;24.13;;;;;;;10.60;100.00;100723.89;1455388;89;21385;-82
2023/12/29 10:37:19;;;;;;;32.27;23.27;;;;;;;10.61;100.00;100714.47;1457330;89;22956;-82
2023/12/29 10:39:58;;;;;;;40.37;26.70;;;;;;;10.51;100.00;100716.80;1457895;88;21436;-83
2023/12/29 10:42:25;;;;;;;35.17;22.07;;;;;;;10.48;100.00;100723.20;1456524;89;21459;-83
2023/12/29 10:45:10;;;;;;;32.17;22.10;;;;;;;10.50;100.00;100725.69;1457173;89;21591;-81
2023/12/29 10:47:39;;;;;;;30.20;19.87;;;;;;;10.46;100.00;100724.31;1445879;89;22361;-82
2023/12/29 10:50:07;;;;;;;30.37;21.00;;;;;;;10.34;100.00;100714.36;1454688;89;21409;-82
2023/12/29 10:52:36;;;;;;;29.23;21.70;;;;;;;10.26;100.00;100723.44;1462864;89;21406;-81
2023/12/29 10:55:09;;;;;;;32.23;22.20;;;;;;;10.28;100.00;100718.89;1465278;89;21496;-83
2023/12/29 10:57:37;;;;;;;25.87;18.80;;;;;;;10.30;100.00;100713.81;1447880;89;21554;-83
2023/12/29 11:00:07;;;;;;;29.47;19.17;;;;;;;10.28;100.00;100711.78;1459280;89;21274;-84
2023/12/29 11:02:35;;;;;;;27.90;18.05;;;;;;;10.23;100.00;100703.39;1453492;89;21443;-83
2023/12/29 11:05:08;;;;;;;27.33;20.67;;;;;;;10.19;100.00;100705.97;1447632;89;21444;-83
2023/12/29 11:07:41;;;;;;;29.93;19.60;;;;;;;10.05;100.00;100697.13;1457610;89;21340;-83
2023/12/29 11:10:09;;;;;;;29.27;19.23;;;;;;;10.12;100.00;100700.88;1448696;89;21588;-81
2023/12/29 11:12:39;;;;;;;27.17;18.23;;;;;;;10.15;100.00;100695.30;1451376;89;21592;-81
2023/12/29 11:15:08;;;;;;;23.20;17.30;;;;;;;10.07;100.00;100680.61;1459049;89;21392;-82